Time;durP1;ratioP1;P1;durP2;ratioP2;P2;SDS_P1;SDS_P2;PMS_P1;PMS_P2;Temp;Humidity;BMP_temperature;BMP_pressure;BME280_temperature;BME280_humidity;BME280_pressure;Samples;Min_cycle;Max_cycle;Signal;HPM_P1;HPM_P2
2021/03/17 00:00:10;;;;;;;18.38;13.48;;;;;;;4.14;100.00;101769.31;10138960;29;20057;-70
2021/03/17 00:05:32;;;;;;;19.92;13.18;;;;;;;4.12;100.00;101774.53;10139281;29;20049;-70
2021/03/17 00:10:54;;;;;;;17.55;12.13;;;;;;;4.05;100.00;101780.59;10139712;29;20056;-69
2021/03/17 00:16:13;;;;;;;16.52;11.57;;;;;;;4.04;100.00;101786.69;10138526;29;20052;-69
2021/03/17 00:21:33;;;;;;;17.70;11.25;;;;;;;4.17;100.00;101798.88;10138836;29;20064;-70
2021/03/17 00:26:53;;;;;;;16.45;11.77;;;;;;;4.00;100.00;101800.59;10137912;29;20044;-70
2021/03/17 00:32:12;;;;;;;18.10;12.93;;;;;;;4.06;100.00;101811.03;10138309;29;20056;-70
2021/03/17 00:37:32;;;;;;;18.17;13.20;;;;;;;4.13;100.00;101830.16;10138849;29;20040;-70
2021/03/17 00:42:52;;;;;;;18.38;13.70;;;;;;;4.24;100.00;101853.66;10138267;29;20049;-70
2021/03/17 00:48:12;;;;;;;19.90;12.48;;;;;;;4.25;100.00;101858.00;10137142;29;20048;-68
2021/03/17 00:53:19;;;;;;;15.88;12.23;;;;;;;4.16;100.00;101859.75;10137850;29;20423;-70
2021/03/17 00:58:21;;;;;;;18.13;13.80;;;;;;;4.20;100.00;101868.41;10136564;29;20489;-70
2021/03/17 01:03:22;;;;;;;19.33;14.65;;;;;;;4.30;100.00;101877.13;10120616;29;20055;-70
2021/03/17 01:08:23;;;;;;;16.60;14.10;;;;;;;4.28;100.00;101874.53;10137579;29;20407;-70
2021/03/17 01:13:24;;;;;;;17.98;14.13;;;;;;;4.28;100.00;101873.66;10138295;29;20064;-70
2021/03/17 01:18:25;;;;;;;19.65;15.77;;;;;;;4.19;100.00;101862.31;10136499;29;20104;-69
2021/03/17 01:23:26;;;;;;;19.50;13.73;;;;;;;4.17;100.00;101869.31;10137847;29;20446;-68
2021/03/17 01:28:53;;;;;;;21.70;12.38;;;;;;;4.06;100.00;101851.88;10578142;27;20359;-71
2021/03/17 01:33:54;;;;;;;12.40;8.10;;;;;;;3.92;100.00;101838.81;10578810;28;20051;-71
2021/03/17 01:38:55;;;;;;;12.18;8.63;;;;;;;3.98;100.00;101844.03;10572941;28;20408;-71
2021/03/17 01:43:56;;;;;;;10.50;7.68;;;;;;;3.96;100.00;101837.94;10536059;28;20040;-70
2021/03/17 01:48:58;;;;;;;8.90;6.65;;;;;;;3.97;100.00;101842.28;10534302;28;20036;-71
2021/03/17 01:53:59;;;;;;;7.75;5.93;;;;;;;3.97;100.00;101836.22;10535369;28;20029;-70
2021/03/17 01:59:01;;;;;;;7.13;6.03;;;;;;;3.87;100.00;101829.22;10534615;28;20048;-70
2021/03/17 02:04:03;;;;;;;6.72;5.13;;;;;;;3.90;100.00;101829.25;10535087;28;20040;-71
2021/03/17 02:09:05;;;;;;;8.52;4.78;;;;;;;3.87;100.00;101829.22;10534073;28;20408;-70
2021/03/17 02:14:16;;;;;;;7.20;4.97;;;;;;;3.88;100.00;101826.63;10534775;28;20059;-70
2021/03/17 02:19:31;;;;;;;8.55;6.65;;;;;;;3.89;100.00;101832.72;10533789;28;20051;-71
2021/03/17 02:25:02;;;;;;;7.82;6.20;;;;;;;3.95;100.00;101837.94;10534343;28;20040;-70
2021/03/17 02:30:18;;;;;;;8.20;6.30;;;;;;;3.89;100.00;101828.38;10495424;28;20442;-68
2021/03/17 02:35:23;;;;;;;9.50;7.93;;;;;;;3.84;100.00;101813.59;10517264;28;20044;-70
2021/03/17 02:40:32;;;;;;;9.80;8.32;;;;;;;3.89;100.00;101825.78;10505045;28;20041;-70
2021/03/17 02:45:36;;;;;;;8.93;6.72;;;;;;;3.83;100.00;101827.50;10505694;28;20068;-71
2021/03/17 02:50:43;;;;;;;8.77;6.18;;;;;;;3.79;100.00;101831.81;10505094;28;20036;-69
2021/03/17 02:55:48;;;;;;;8.07;5.60;;;;;;;3.80;100.00;101841.38;10503651;28;20056;-70
2021/03/17 03:00:50;;;;;;;6.78;5.32;;;;;;;3.80;100.00;101844.84;10505226;28;20041;-70
2021/03/17 03:05:54;;;;;;;8.00;5.53;;;;;;;3.78;100.00;101845.69;10503909;28;20473;-71
2021/03/17 03:10:58;;;;;;;7.97;5.78;;;;;;;3.82;100.00;101852.69;10504024;28;20461;-70
2021/03/17 03:16:00;;;;;;;8.20;6.18;;;;;;;3.78;100.00;101843.97;10502977;28;20041;-70
2021/03/17 03:21:05;;;;;;;11.15;7.00;;;;;;;3.76;100.00;101837.03;10504287;28;20098;-71
2021/03/17 03:26:06;;;;;;;8.15;6.32;;;;;;;3.74;100.00;101849.19;10503619;28;20050;-71
2021/03/17 03:31:08;;;;;;;11.05;8.70;;;;;;;3.67;100.00;101843.09;10503857;28;20386;-70
2021/03/17 03:36:10;;;;;;;13.07;9.98;;;;;;;3.71;100.00;101855.25;10502778;28;20047;-71
2021/03/17 03:41:12;;;;;;;8.93;7.72;;;;;;;3.64;100.00;101845.66;10503085;28;20050;-70
2021/03/17 03:46:13;;;;;;;8.98;7.22;;;;;;;3.56;100.00;101849.97;10502887;28;20500;-71
2021/03/17 03:51:18;;;;;;;9.07;7.30;;;;;;;3.59;100.00;101865.63;10501765;28;20048;-70
2021/03/17 03:56:44;;;;;;;11.02;8.73;;;;;;;3.59;100.00;101860.41;10497403;28;20041;-70
2021/03/17 04:01:52;;;;;;;11.87;8.33;;;;;;;3.59;100.00;101869.97;10461839;28;20045;-70
2021/03/17 04:06:57;;;;;;;9.20;7.78;;;;;;;3.57;100.00;101869.09;10490042;28;20041;-70
2021/03/17 04:12:02;;;;;;;8.52;6.50;;;;;;;3.50;100.00;101867.31;10501843;28;20047;-70
2021/03/17 04:17:20;;;;;;;6.22;5.15;;;;;;;3.38;100.00;101881.13;10500989;28;20040;-68
2021/03/17 04:22:22;;;;;;;7.95;6.15;;;;;;;3.40;100.00;101876.81;10501999;28;20055;-69
2021/03/17 04:27:26;;;;;;;7.78;6.32;;;;;;;3.44;100.00;101883.78;10499392;28;20037;-69
2021/03/17 04:32:27;;;;;;;6.70;5.68;;;;;;;3.36;100.00;101875.03;10501414;28;20067;-69
2021/03/17 04:37:30;;;;;;;6.70;5.15;;;;;;;3.39;100.00;101888.97;10500393;28;20051;-70
2021/03/17 04:42:33;;;;;;;6.93;5.35;;;;;;;3.35;100.00;101892.41;10500709;28;20349;-70
2021/03/17 04:47:34;;;;;;;7.00;6.07;;;;;;;3.35;100.00;101897.59;10499058;28;20067;-69
2021/03/17 04:52:39;;;;;;;6.38;5.15;;;;;;;3.30;100.00;101893.25;10500827;28;20045;-70
2021/03/17 04:57:43;;;;;;;6.32;5.60;;;;;;;3.31;100.00;101910.63;10499474;28;20058;-70
2021/03/17 05:02:50;;;;;;;6.65;5.80;;;;;;;3.33;100.00;101916.72;10499326;28;20036;-70
2021/03/17 05:07:53;;;;;;;8.02;7.20;;;;;;;3.40;100.00;101926.31;10499914;28;20055;-69
2021/03/17 05:12:54;;;;;;;8.68;6.90;;;;;;;3.36;100.00;101920.19;10520385;28;20039;-70
2021/03/17 05:17:56;;;;;;;9.13;8.13;;;;;;;3.38;100.00;101930.63;10524420;28;20044;-69
2021/03/17 05:22:58;;;;;;;8.13;7.30;;;;;;;3.36;100.00;101927.13;10519231;28;20532;-69
2021/03/17 05:28:04;;;;;;;9.00;7.50;;;;;;;3.27;100.00;101934.88;10497770;28;20583;-70
2021/03/17 05:33:09;;;;;;;8.40;7.30;;;;;;;3.25;100.00;101942.72;10514720;28;20052;-69
2021/03/17 05:38:11;;;;;;;9.50;8.18;;;;;;;3.34;100.00;101958.41;10499175;28;20049;-70
2021/03/17 05:43:12;;;;;;;9.05;6.95;;;;;;;3.27;100.00;101950.50;10499583;28;20040;-70
2021/03/17 05:48:15;;;;;;;8.02;6.75;;;;;;;3.29;100.00;101962.69;10498559;28;20060;-70
2021/03/17 05:53:17;;;;;;;8.75;7.47;;;;;;;3.32;100.00;101967.06;10475390;28;20059;-69
2021/03/17 05:58:21;;;;;;;10.35;8.15;;;;;;;3.32;100.00;101977.47;10480909;28;20469;-70
2021/03/17 06:03:23;;;;;;;9.30;7.40;;;;;;;3.32;100.00;101970.53;10500533;28;20061;-70
2021/03/17 06:08:27;;;;;;;9.73;7.97;;;;;;;3.43;100.00;101994.06;10474986;28;20052;-69
2021/03/17 06:13:32;;;;;;;11.98;8.52;;;;;;;3.41;100.00;101987.97;10462065;28;20052;-70
2021/03/17 06:18:37;;;;;;;9.90;7.95;;;;;;;3.41;100.00;101986.25;10464813;28;20404;-70
2021/03/17 06:23:39;;;;;;;10.35;8.00;;;;;;;3.50;100.00;101994.97;10465769;28;20120;-69
2021/03/17 06:28:40;;;;;;;11.90;9.85;;;;;;;3.52;100.00;101988.00;10504887;28;20051;-69
2021/03/17 06:33:42;;;;;;;11.73;9.70;;;;;;;3.56;100.00;101997.63;10506068;28;20060;-68
2021/03/17 06:38:44;;;;;;;10.45;8.23;;;;;;;3.71;100.00;101995.97;10518741;28;20041;-69
2021/03/17 06:43:49;;;;;;;10.52;7.75;;;;;;;3.68;100.00;101987.28;10509642;28;20044;-69
2021/03/17 06:48:50;;;;;;;9.77;8.50;;;;;;;3.72;100.00;101987.28;10525532;28;20043;-69
2021/03/17 06:54:03;;;;;;;10.40;7.97;;;;;;;3.73;100.00;101983.84;10503528;28;20386;-68
2021/03/17 06:59:07;;;;;;;9.73;8.20;;;;;;;3.68;100.00;101979.47;10472733;28;20064;-67
2021/03/17 07:04:11;;;;;;;13.13;10.52;;;;;;;3.70;100.00;101977.72;10490676;28;20048;-67
2021/03/17 07:09:27;;;;;;;11.27;9.45;;;;;;;3.75;100.00;101983.84;10501229;28;20056;-66
2021/03/17 07:14:28;;;;;;;12.07;8.10;;;;;;;3.78;100.00;101982.09;10503342;28;20067;-67
2021/03/17 07:19:29;;;;;;;10.60;8.98;;;;;;;3.90;100.00;101986.53;10501104;28;20033;-66
2021/03/17 07:24:30;;;;;;;11.93;8.90;;;;;;;4.01;100.00;101982.25;10487196;28;20425;-69
2021/03/17 07:29:32;;;;;;;9.48;7.85;;;;;;;4.45;100.00;102002.41;10500756;28;20063;-69
2021/03/17 07:34:34;;;;;;;9.23;7.88;;;;;;;4.75;100.00;101994.66;10468689;28;20462;-67
2021/03/17 07:39:38;;;;;;;9.30;8.25;;;;;;;4.79;100.00;101988.56;10487758;28;20389;-68
2021/03/17 07:44:42;;;;;;;9.13;7.43;;;;;;;5.21;100.00;102000.78;10459224;28;20060;-68
2021/03/17 07:49:45;;;;;;;13.33;10.47;;;;;;;4.97;100.00;101956.38;10491013;28;20045;-68
2021/03/17 07:54:52;;;;;;;26.00;9.52;;;;;;;4.89;100.00;101943.31;10470004;28;20087;-68
2021/03/17 07:59:55;;;;;;;8.02;5.82;;;;;;;4.55;100.00;101918.06;10500220;28;20029;-69
2021/03/17 08:04:58;;;;;;;6.57;5.32;;;;;;;4.34;100.00;101902.38;10500736;28;20369;-67
2021/03/17 08:10:00;;;;;;;4.47;3.40;;;;;;;4.12;100.00;101894.47;10499469;28;20123;-68
2021/03/17 08:15:01;;;;;;;5.28;3.10;;;;;;;4.51;100.00;101908.50;10500601;28;20040;-69
2021/03/17 08:20:27;;;;;;;5.28;3.90;;;;;;;4.87;100.00;101905.88;10498544;28;20048;-69
2021/03/17 08:25:43;;;;;;;;;;;;;;;4.69;100.00;101876.28;10498997;28;20045;-71
2021/03/17 08:30:44;;;;;;;6.22;3.10;;;;;;;5.27;100.00;101888.44;10499709;28;19921;-70
2021/03/17 08:36:18;;;;;;;3.63;2.70;;;;;;;6.61;100.00;101913.19;10498505;28;20040;-70
2021/03/17 08:41:41;;;;;;;6.90;3.33;;;;;;;7.45;100.00;101890.56;10466288;28;20080;-70
2021/03/17 08:46:44;;;;;;;6.15;2.83;;;;;;;9.25;100.00;101866.94;10488288;28;20461;-70
2021/03/17 08:51:45;;;;;;;5.65;2.97;;;;;;;11.72;99.85;101890.06;10499642;28;20045;-69
2021/03/17 08:56:48;;;;;;;4.13;1.80;;;;;;;10.60;88.35;101804.31;10485648;28;20044;-70
2021/03/17 09:01:50;;;;;;;3.37;1.73;;;;;;;8.34;88.86;101722.31;10492264;28;20041;-70
2021/03/17 09:07:07;;;;;;;5.25;1.73;;;;;;;7.24;89.64;101717.81;10486782;28;20079;-70
2021/03/17 09:12:08;;;;;;;6.75;2.10;;;;;;;7.09;90.01;101712.75;10498120;28;20051;-70
2021/03/17 09:17:14;;;;;;;4.15;2.30;;;;;;;7.82;89.45;101759.84;10498369;28;20665;-70
2021/03/17 09:22:39;;;;;;;5.53;2.47;;;;;;;8.12;87.47;101778.66;10456330;28;20139;-68
2021/03/17 09:27:48;;;;;;;5.97;3.15;;;;;;;8.38;85.12;101726.59;10490704;28;20040;-70
2021/03/17 09:32:50;;;;;;;5.60;3.40;;;;;;;7.68;86.93;101711.97;10498002;28;20040;-70
2021/03/17 09:38:02;;;;;;;4.97;2.90;;;;;;;8.25;88.24;101764.44;10496991;28;20090;-70
2021/03/17 09:43:04;;;;;;;5.80;2.70;;;;;;;7.55;87.31;101694.66;10498272;28;20457;-69
2021/03/17 09:48:05;;;;;;;5.20;2.75;;;;;;;7.82;87.48;101715.25;10500757;28;20044;-68
2021/03/17 09:53:15;;;;;;;5.85;3.13;;;;;;;8.76;84.05;101765.34;10505690;28;20048;-69
2021/03/17 09:58:16;;;;;;;8.10;3.45;;;;;;;9.19;79.75;101714.56;10505064;28;20087;-70
2021/03/17 10:03:19;;;;;;;4.70;2.88;;;;;;;8.23;81.08;101679.56;10504105;28;20075;-69
2021/03/17 10:08:20;;;;;;;5.35;2.13;;;;;;;7.45;82.49;101653.72;10504589;28;20055;-69
2021/03/17 10:13:22;;;;;;;4.18;2.00;;;;;;;6.80;84.20;101658.09;10504988;28;20048;-69
2021/03/17 10:18:23;;;;;;;4.13;2.38;;;;;;;6.22;85.56;101626.44;10503194;28;20119;-69
2021/03/17 10:23:25;;;;;;;5.47;2.47;;;;;;;6.52;87.71;101677.63;10505091;28;20048;-70
2021/03/17 10:28:26;;;;;;;5.40;2.13;;;;;;;6.80;88.54;101679.03;10501806;28;20049;-69
2021/03/17 10:33:28;;;;;;;4.60;1.60;;;;;;;6.82;85.57;101654.56;10461404;28;20037;-68
2021/03/17 10:38:29;;;;;;;3.80;1.40;;;;;;;6.96;84.86;101683.22;10493813;28;20041;-69
2021/03/17 10:43:32;;;;;;;2.72;1.40;;;;;;;6.97;83.57;101668.34;10503525;28;20062;-69
2021/03/17 10:48:33;;;;;;;3.05;1.05;;;;;;;7.34;82.86;101684.47;10501686;28;20488;-69
2021/03/17 10:53:36;;;;;;;3.95;1.48;;;;;;;8.48;76.52;101685.28;10484969;28;20044;-71
2021/03/17 10:58:39;;;;;;;2.70;1.30;;;;;;;7.75;75.19;101620.94;10480063;28;20367;-69
2021/03/17 11:03:41;;;;;;;3.42;1.52;;;;;;;7.71;76.30;101641.09;10474707;28;20462;-69
2021/03/17 11:08:46;;;;;;;3.08;1.48;;;;;;;7.51;75.77;101623.06;10517603;28;20503;-70
2021/03/17 11:13:49;;;;;;;3.07;1.83;;;;;;;7.73;76.06;101665.53;10503443;28;20044;-69
2021/03/17 11:18:51;;;;;;;2.38;1.45;;;;;;;12.18;68.36;101809.50;10502437;28;20055;-69
2021/03/17 11:23:55;;;;;;;4.15;2.10;;;;;;;9.71;65.13;101609.88;10497462;28;20052;-70
2021/03/17 11:28:59;;;;;;;3.03;1.50;;;;;;;12.07;62.66;101698.91;10463116;28;20052;-70
2021/03/17 11:34:00;;;;;;;4.75;1.90;;;;;;;9.21;65.27;101563.75;10487154;28;20627;-68
2021/03/17 11:39:06;;;;;;;3.25;1.92;;;;;;;8.38;66.73;101546.28;10500997;28;20045;-68
2021/03/17 11:44:12;;;;;;;4.32;1.60;;;;;;;9.93;65.14;101625.16;10484731;28;20048;-69
2021/03/17 11:49:15;;;;;;;5.32;2.00;;;;;;;8.98;68.29;101608.97;10499643;28;20058;-69
2021/03/17 11:54:16;;;;;;;4.10;2.00;;;;;;;9.66;63.65;101551.25;10500357;28;20048;-69
2021/03/17 11:59:18;;;;;;;4.40;2.05;;;;;;;8.46;68.66;101540.88;10522191;28;20381;-69
2021/03/17 12:04:19;;;;;;;2.95;1.50;;;;;;;7.54;70.77;101531.22;10518301;28;20457;-68
2021/03/17 12:09:20;;;;;;;3.25;1.73;;;;;;;6.85;73.08;101520.97;10531289;28;20052;-68
2021/03/17 12:14:22;;;;;;;4.32;2.58;;;;;;;6.46;77.85;101529.34;10501516;28;20151;-66
2021/03/17 12:19:23;;;;;;;4.00;2.20;;;;;;;5.98;80.70;101555.19;10500540;28;20044;-69
2021/03/17 12:24:24;;;;;;;4.97;2.05;;;;;;;6.22;81.47;101590.69;10500518;28;20040;-70
2021/03/17 12:29:25;;;;;;;4.32;1.60;;;;;;;6.77;80.20;101621.47;10499595;28;20056;-70
2021/03/17 12:34:28;;;;;;;3.45;1.60;;;;;;;6.95;77.96;101621.22;10512620;28;20548;-66
2021/03/17 12:39:29;;;;;;;3.22;1.52;;;;;;;8.18;73.83;101661.31;10482754;28;20056;-73
2021/03/17 12:44:31;;;;;;;2.97;1.70;;;;;;;9.98;68.65;101704.88;10480995;28;20048;-71
2021/03/17 12:49:33;;;;;;;2.88;1.75;;;;;;;10.31;67.31;101651.38;10486021;28;20045;-73
2021/03/17 12:54:34;;;;;;;3.92;1.90;;;;;;;8.66;68.75;101579.88;10467902;28;20378;-68
2021/03/17 12:59:36;;;;;;;6.78;1.85;;;;;;;7.57;72.30;101546.03;10488304;28;20450;-65
2021/03/17 13:04:40;;;;;;;5.60;2.70;;;;;;;7.10;70.81;101529.34;10465398;28;20048;-67
2021/03/17 13:09:42;;;;;;;5.53;2.90;;;;;;;7.50;70.04;101578.50;10498886;28;20052;-67
2021/03/17 13:14:43;;;;;;;7.38;4.00;;;;;;;7.94;69.90;101602.25;10500266;28;20369;-67
2021/03/17 13:19:44;;;;;;;7.43;3.78;;;;;;;7.99;68.23;101591.66;10480698;28;20139;-71
2021/03/17 13:24:47;;;;;;;6.63;2.72;;;;;;;8.10;66.60;101558.22;10482059;28;20419;-71
2021/03/17 13:29:59;;;;;;;9.48;3.10;;;;;;;8.35;68.72;101595.38;10499253;28;20044;-75
2021/03/17 13:35:00;;;;;;;7.85;2.80;;;;;;;8.70;66.91;101603.41;10499350;28;20044;-72
2021/03/17 13:40:07;;;;;;;6.70;2.40;;;;;;;9.42;64.05;101612.34;10500234;28;20044;-74
2021/03/17 13:45:15;;;;;;;5.65;2.58;;;;;;;8.35;61.25;101511.38;10500062;28;20047;-73
2021/03/17 13:50:16;;;;;;;6.65;2.65;;;;;;;8.69;62.13;101550.94;10499689;28;20052;-73
2021/03/17 13:55:18;;;;;;;5.43;2.65;;;;;;;8.60;62.30;101545.88;10499006;28;20051;-73
2021/03/17 14:00:20;;;;;;;7.45;2.85;;;;;;;7.97;64.58;101522.56;10492890;28;20397;-72
2021/03/17 14:05:22;;;;;;;4.97;2.20;;;;;;;7.67;63.50;101505.66;10459210;28;20048;-73
2021/03/17 14:10:26;;;;;;;5.55;2.40;;;;;;;7.56;64.48;101507.59;10461692;28;20045;-72
2021/03/17 14:15:28;;;;;;;8.30;2.85;;;;;;;7.33;66.61;101497.50;10497957;28;20052;-73
2021/03/17 14:20:30;;;;;;;5.93;2.67;;;;;;;8.11;65.53;101580.06;10499038;28;20047;-72
2021/03/17 14:25:34;;;;;;;8.50;2.97;;;;;;;8.12;64.08;101522.28;10497495;28;20045;-72
2021/03/17 14:30:36;;;;;;;7.13;3.30;;;;;;;8.02;65.63;101531.25;10459823;28;20529;-72
2021/03/17 14:35:39;;;;;;;6.00;2.70;;;;;;;7.69;65.52;101514.38;10462166;28;20052;-72
2021/03/17 14:40:40;;;;;;;5.53;2.80;;;;;;;7.60;66.50;101527.63;10463727;28;20044;-72
2021/03/17 14:45:41;;;;;;;6.82;2.92;;;;;;;7.45;65.81;101507.78;10463933;28;20472;-72
2021/03/17 14:50:42;;;;;;;8.23;2.65;;;;;;;7.40;65.69;101516.63;10463764;28;20049;-71
2021/03/17 14:55:44;;;;;;;8.45;3.10;;;;;;;7.28;67.84;101515.03;10464189;28;21068;-71
2021/03/17 15:00:45;;;;;;;5.90;3.40;;;;;;;7.34;69.10;101535.94;10463351;28;20225;-71
2021/03/17 15:05:49;;;;;;;8.05;3.35;;;;;;;7.84;70.42;101584.06;10498751;28;20378;-72
2021/03/17 15:10:53;;;;;;;6.35;3.25;;;;;;;8.58;69.91;101623.81;10504239;28;20134;-71
2021/03/17 15:15:54;;;;;;;6.50;3.25;;;;;;;8.42;68.63;101573.38;10503531;28;20447;-72
2021/03/17 15:20:56;;;;;;;9.43;2.53;;;;;;;8.05;70.09;101549.53;10504163;28;20044;-71
2021/03/17 15:25:57;;;;;;;7.78;2.78;;;;;;;7.50;71.96;101528.69;10503824;28;20125;-72
2021/03/17 15:31:00;;;;;;;4.90;2.30;;;;;;;7.37;72.86;101545.47;10504819;28;20049;-72
2021/03/17 15:36:05;;;;;;;6.78;2.28;;;;;;;7.57;73.36;101575.75;10503116;28;20052;-72
2021/03/17 15:41:07;;;;;;;9.60;2.50;;;;;;;7.43;73.82;101574.25;10486745;28;20041;-71
2021/03/17 15:46:08;;;;;;;10.27;3.83;;;;;;;7.39;71.38;101570.78;10481493;28;20045;-71
2021/03/17 15:51:10;;;;;;;6.88;2.92;;;;;;;7.26;72.67;101563.16;10461323;28;20055;-71
2021/03/17 15:56:11;;;;;;;7.30;2.72;;;;;;;7.27;73.12;101581.50;10460588;28;20044;-70
2021/03/17 16:01:12;;;;;;;5.90;2.58;;;;;;;7.41;72.85;101603.09;10460281;28;20075;-71
2021/03/17 16:06:13;;;;;;;6.53;2.90;;;;;;;7.14;73.01;101566.81;10453221;28;20044;-72
2021/03/17 16:11:15;;;;;;;7.15;2.30;;;;;;;7.19;73.48;101586.84;10419055;28;20053;-73
2021/03/17 16:16:16;;;;;;;6.70;2.53;;;;;;;7.30;73.49;101596.28;10419661;28;20048;-72
2021/03/17 16:21:18;;;;;;;7.15;2.42;;;;;;;7.18;73.68;101579.00;10428946;28;20053;-72
2021/03/17 16:26:19;;;;;;;4.88;2.30;;;;;;;7.10;74.21;101571.25;10401911;28;20045;-72
2021/03/17 16:31:22;;;;;;;7.68;2.50;;;;;;;6.90;76.21;101585.50;10419141;28;20050;-72
2021/03/17 16:36:23;;;;;;;5.32;2.72;;;;;;;6.76;78.04;101597.03;10434879;28;20383;-72
2021/03/17 16:41:25;;;;;;;6.85;2.65;;;;;;;6.80;78.79;101618.78;10418728;28;20041;-72
2021/03/17 16:46:26;;;;;;;5.95;2.28;;;;;;;6.66;78.74;101626.84;10418362;28;20041;-72
2021/03/17 16:51:29;;;;;;;5.32;2.35;;;;;;;6.64;78.14;101631.22;10426455;28;20091;-71
2021/03/17 16:56:30;;;;;;;8.70;2.83;;;;;;;6.59;78.12;101635.66;10441325;28;20141;-72
2021/03/17 17:01:31;;;;;;;6.10;2.42;;;;;;;6.57;78.73;101634.78;10458188;28;20057;-72
2021/03/17 17:06:32;;;;;;;5.13;2.25;;;;;;;6.72;79.50;101666.03;10459561;28;20419;-71
2021/03/17 17:11:34;;;;;;;5.85;2.50;;;;;;;6.59;78.76;101661.84;10457670;28;20106;-69
2021/03/17 17:16:36;;;;;;;7.53;3.30;;;;;;;6.41;78.50;101665.50;10458862;28;20037;-72
2021/03/17 17:21:37;;;;;;;11.00;6.45;;;;;;;6.30;77.56;101667.34;10458267;28;20036;-72
2021/03/17 17:26:38;;;;;;;10.15;5.78;;;;;;;6.18;77.39;101657.03;10458456;28;20072;-72
2021/03/17 17:31:40;;;;;;;7.38;4.18;;;;;;;6.06;77.99;101659.72;10457915;28;20051;-71
2021/03/17 17:36:41;;;;;;;7.07;3.80;;;;;;;6.07;77.97;101664.09;10457221;28;20036;-71
2021/03/17 17:41:42;;;;;;;7.22;3.83;;;;;;;5.70;79.58;101645.16;10458094;28;20060;-71
2021/03/17 17:46:43;;;;;;;7.18;4.32;;;;;;;5.46;82.77;101650.56;10457253;28;20045;-72
2021/03/17 17:51:44;;;;;;;8.70;3.10;;;;;;;5.44;84.18;101676.72;10457729;28;20060;-72
2021/03/17 17:56:46;;;;;;;7.80;2.70;;;;;;;5.36;84.88;101691.56;10457054;28;20067;-71
2021/03/17 18:01:47;;;;;;;6.45;2.58;;;;;;;4.99;86.27;101659.56;10458517;28;20083;-72
2021/03/17 18:06:48;;;;;;;4.35;2.10;;;;;;;4.57;88.51;101650.16;10458200;28;20037;-72
2021/03/17 18:11:49;;;;;;;4.80;1.90;;;;;;;4.18;90.60;101651.94;10465943;28;20421;-72
2021/03/17 18:16:51;;;;;;;6.90;2.17;;;;;;;4.00;91.76;101678.06;10456625;28;20132;-73
2021/03/17 18:21:52;;;;;;;6.22;2.25;;;;;;;4.03;92.79;101711.94;10423722;28;20060;-73
2021/03/17 18:26:54;;;;;;;6.03;3.00;;;;;;;3.83;92.98;101691.97;10438820;28;20042;-73
2021/03/17 18:31:55;;;;;;;13.05;10.10;;;;;;;3.88;93.02;101685.88;10439503;28;20053;-73
2021/03/17 18:36:56;;;;;;;14.73;13.30;;;;;;;3.81;92.98;101668.50;10422513;28;20053;-73
2021/03/17 18:41:57;;;;;;;7.95;7.15;;;;;;;3.80;92.86;101670.22;10435759;28;20076;-73
2021/03/17 18:46:59;;;;;;;10.52;5.43;;;;;;;3.83;93.10;101684.13;10454290;28;20374;-73
2021/03/17 18:52:00;;;;;;;5.80;3.80;;;;;;;3.60;92.90;101679.75;10441621;28;20044;-73
2021/03/17 18:57:04;;;;;;;14.50;9.05;;;;;;;3.53;92.67;101677.13;10435854;28;20042;-73
2021/03/17 19:02:05;;;;;;;7.38;5.72;;;;;;;3.54;92.64;101690.16;10421508;28;20353;-73
2021/03/17 19:07:07;;;;;;;7.35;3.08;;;;;;;3.49;91.52;101685.81;10438149;28;20136;-73
2021/03/17 19:12:09;;;;;;;8.50;4.93;;;;;;;3.22;91.32;101668.41;10421525;28;20045;-73
2021/03/17 19:17:10;;;;;;;8.38;5.13;;;;;;;3.02;92.15;101678.72;10419765;28;20115;-73
2021/03/17 19:22:12;;;;;;;7.32;3.88;;;;;;;2.81;92.12;101687.34;10422371;28;20107;-73
2021/03/17 19:27:13;;;;;;;5.97;3.05;;;;;;;2.58;93.36;101679.41;10436545;28;20421;-73
2021/03/17 19:32:17;;;;;;;8.15;4.18;;;;;;;2.54;94.66;101705.38;10437249;28;20045;-72
2021/03/17 19:37:19;;;;;;;7.65;4.22;;;;;;;2.43;96.11;101700.09;10436796;28;20037;-72
2021/03/17 19:42:21;;;;;;;8.98;4.80;;;;;;;2.19;98.21;101703.41;10436683;28;20050;-72
2021/03/17 19:47:32;;;;;;;10.00;4.32;;;;;;;2.00;100.00;101717.13;10436210;28;20099;-73
2021/03/17 19:52:34;;;;;;;7.00;4.05;;;;;;;1.89;100.00;101736.94;10420282;28;20044;-73
2021/03/17 19:58:07;;;;;;;8.25;3.90;;;;;;;1.87;100.00;101762.91;10419141;28;20048;-72
2021/03/17 20:03:39;;;;;;;6.38;3.53;;;;;;;2.01;100.00;101790.78;10431449;28;20056;-73
2021/03/17 20:08:42;;;;;;;5.15;2.85;;;;;;;1.98;100.00;101801.13;10418534;28;20045;-72
2021/03/17 20:13:43;;;;;;;6.35;3.03;;;;;;;1.96;100.00;101805.44;10435996;28;20049;-73
2021/03/17 20:18:59;;;;;;;6.43;3.58;;;;;;;2.08;100.00;101840.22;10417749;28;20053;-73
2021/03/17 20:24:06;;;;;;;7.07;3.72;;;;;;;2.09;100.00;101843.69;10418235;28;20041;-73
2021/03/17 20:29:10;;;;;;;7.57;3.80;;;;;;;1.85;100.00;101828.69;10418784;28;20042;-72
2021/03/17 20:34:17;;;;;;;10.40;4.32;;;;;;;2.02;100.00;101867.84;10420913;28;20045;-73
2021/03/17 20:39:20;;;;;;;9.18;4.35;;;;;;;1.97;100.00;101877.34;10431681;28;20037;-73
2021/03/17 20:44:41;;;;;;;6.45;4.60;;;;;;;2.03;100.00;101896.47;10422128;28;20105;-72
2021/03/17 20:49:44;;;;;;;7.57;4.90;;;;;;;1.95;100.00;101899.84;10421380;28;20065;-73
2021/03/17 20:54:46;;;;;;;7.05;4.80;;;;;;;1.99;100.00;101922.41;10453886;28;20040;-72
2021/03/17 20:59:51;;;;;;;7.63;4.18;;;;;;;1.89;100.00;101924.91;10474425;28;20049;-72
2021/03/17 21:04:53;;;;;;;9.90;5.18;;;;;;;1.83;100.00;101916.16;10448349;28;20587;-72
2021/03/17 21:09:55;;;;;;;9.23;4.97;;;;;;;1.78;100.00;101929.09;10432627;28;20164;-73
2021/03/17 21:14:59;;;;;;;10.68;4.70;;;;;;;1.83;100.00;101937.81;10417506;28;20044;-72
2021/03/17 21:20:05;;;;;;;11.38;6.15;;;;;;;1.90;100.00;101952.63;10416247;28;20068;-72
2021/03/17 21:25:26;;;;;;;8.68;4.70;;;;;;;1.88;100.00;101948.25;10416307;28;20053;-72
2021/03/17 21:30:28;;;;;;;6.65;4.10;;;;;;;1.80;100.00;101949.91;10399925;28;20473;-72
2021/03/17 21:35:49;;;;;;;7.47;4.13;;;;;;;1.69;100.00;101944.53;10415864;28;20132;-72
2021/03/17 21:40:56;;;;;;;8.75;4.80;;;;;;;1.65;100.00;101954.88;10433044;28;20175;-72
2021/03/17 21:45:57;;;;;;;7.63;4.20;;;;;;;1.66;100.00;101952.31;10423604;28;20037;-73
2021/03/17 21:51:02;;;;;;;6.85;4.25;;;;;;;1.58;100.00;101953.94;10425706;28;20041;-72
2021/03/17 21:56:07;;;;;;;10.00;6.93;;;;;;;1.24;100.00;101928.34;10440367;28;20429;-73
2021/03/17 22:01:09;;;;;;;9.02;5.30;;;;;;;1.08;100.00;101927.22;10440385;28;20056;-73
2021/03/17 22:06:11;;;;;;;10.90;6.38;;;;;;;0.91;100.00;101926.09;10423679;28;20048;-73
2021/03/17 22:11:12;;;;;;;7.95;5.63;;;;;;;0.92;100.00;101939.06;10426040;28;20050;-72
2021/03/17 22:16:13;;;;;;;16.30;9.10;;;;;;;0.86;100.00;101943.28;10439153;28;20037;-72
2021/03/17 22:21:14;;;;;;;9.77;6.85;;;;;;;0.76;100.00;101950.91;10443627;28;20090;-72
2021/03/17 22:26:17;;;;;;;12.80;6.95;;;;;;;0.81;100.00;101960.50;10459487;28;20041;-73
2021/03/17 22:31:18;;;;;;;11.93;6.28;;;;;;;0.72;100.00;101966.41;10429234;28;20052;-73
2021/03/17 22:36:19;;;;;;;9.52;4.97;;;;;;;0.61;100.00;101984.34;10439768;28;20048;-73
2021/03/17 22:41:20;;;;;;;7.95;5.00;;;;;;;0.66;100.00;101992.22;10439618;28;20052;-73
2021/03/17 22:46:21;;;;;;;8.13;5.60;;;;;;;0.82;100.00;101999.44;10438358;28;20049;-73
2021/03/17 22:51:23;;;;;;;8.65;5.80;;;;;;;0.84;100.00;101999.47;10452824;28;20049;-73
2021/03/17 22:56:24;;;;;;;6.78;4.65;;;;;;;0.77;100.00;101993.28;10444456;28;20041;-73
2021/03/17 23:01:25;;;;;;;8.57;5.18;;;;;;;0.69;100.00;101981.88;10433351;28;20095;-73
2021/03/17 23:06:27;;;;;;;9.45;6.00;;;;;;;0.72;100.00;101969.88;10464058;28;20388;-73
2021/03/17 23:11:35;;;;;;;8.48;6.25;;;;;;;0.69;100.00;101981.88;10463024;28;20056;-73
2021/03/17 23:16:37;;;;;;;11.63;7.55;;;;;;;0.69;100.00;101980.16;10446254;28;20370;-72
2021/03/17 23:21:40;;;;;;;12.30;7.43;;;;;;;0.72;100.00;101974.19;10446513;28;20080;-73